Time;durP1;ratioP1;P1;durP2;ratioP2;P2;SDS_P1;SDS_P2;PMS_P1;PMS_P2;Temp;Humidity;BMP_temperature;BMP_pressure;BME280_temperature;BME280_humidity;BME280_pressure;Samples;Min_cycle;Max_cycle;Signal;HPM_P1;HPM_P2
2022/11/14 00:02:04;;;;;;;83.38;51.90;;;204.90;2252.80;;;;;;5078508;28;20060;-82
2022/11/14 00:04:30;;;;;;;99.80;55.47;;;180.10;2252.80;;;;;;5089361;28;20044;-83
2022/11/14 00:06:55;;;;;;;129.40;71.38;;;180.10;2252.80;;;;;;5092429;28;20024;-82
2022/11/14 00:09:26;;;;;;;150.98;79.28;;;179.90;2252.80;;;;;;5095957;28;20044;-81
2022/11/14 00:11:52;;;;;;;152.30;80.72;;;180.10;2252.80;;;;;;5096643;28;20115;-80
2022/11/14 00:14:18;;;;;;;127.53;73.93;;;180.10;2252.80;;;;;;5096924;28;20060;-85
2022/11/14 00:16:43;;;;;;;169.23;96.22;;;204.80;2252.80;;;;;;5091886;28;20074;-84
2022/11/14 00:19:09;;;;;;;170.55;98.13;;;180.10;2252.80;;;;;;5096773;28;20032;-86
2022/11/14 00:21:35;;;;;;;153.77;92.85;;;204.80;2252.80;;;;;;5096712;28;20024;-86
2022/11/14 00:24:01;;;;;;;146.38;88.85;;;204.90;2252.80;;;;;;5097217;28;20376;-84
2022/11/14 00:26:27;;;;;;;124.45;75.90;;;204.90;2252.80;;;;;;5102068;28;20067;-82
2022/11/14 00:28:54;;;;;;;118.68;65.70;;;204.90;2252.80;;;;;;5104254;28;20035;-81
2022/11/14 00:31:20;;;;;;;99.85;58.05;;;204.90;2252.80;;;;;;5104888;28;20025;-84
2022/11/14 00:33:46;;;;;;;84.57;51.28;;;205.00;2252.80;;;;;;5106272;28;20024;-83
2022/11/14 00:36:12;;;;;;;89.82;50.88;;;204.90;2252.80;;;;;;5109100;28;20039;-85
2022/11/14 00:38:37;;;;;;;82.82;51.10;;;204.80;2252.80;;;;;;5110898;28;20028;-84
2022/11/14 00:41:03;;;;;;;71.07;45.63;;;180.10;2252.80;;;;;;5109164;28;20024;-83
2022/11/14 00:43:29;;;;;;;89.22;54.45;;;204.80;2252.80;;;;;;5109311;28;20467;-85
2022/11/14 00:45:55;;;;;;;117.93;62.15;;;180.00;2252.80;;;;;;5095843;28;20036;-86
2022/11/14 00:48:21;;;;;;;131.30;68.93;;;180.00;2252.80;;;;;;5093217;28;20094;-82
2022/11/14 00:50:46;;;;;;;197.05;102.60;;;180.00;2252.80;;;;;;5116731;28;20030;-84
2022/11/14 00:53:12;;;;;;;139.70;77.53;;;180.00;2252.80;;;;;;5117853;28;20373;-83
2022/11/14 00:55:38;;;;;;;88.68;51.65;;;180.00;2252.80;;;;;;5117317;28;20020;-84
2022/11/14 00:58:04;;;;;;;125.22;63.83;;;180.00;2252.80;;;;;;5117533;28;20035;-82
2022/11/14 01:00:30;;;;;;;85.47;52.13;;;180.10;2252.80;;;;;;5116990;28;20051;-83
2022/11/14 01:02:57;;;;;;;83.65;50.03;;;180.10;2252.80;;;;;;5118050;28;20033;-83
2022/11/14 01:05:26;;;;;;;94.88;51.85;;;180.10;2252.80;;;;;;5116814;28;20097;-83
2022/11/14 01:07:52;;;;;;;87.35;51.45;;;180.10;2252.80;;;;;;5116707;28;20386;-83
2022/11/14 01:10:18;;;;;;;89.78;54.63;;;204.80;2252.80;;;;;;5116606;28;20053;-82
2022/11/14 01:12:44;;;;;;;102.35;62.83;;;204.80;2252.80;;;;;;5116569;28;20413;-84
2022/11/14 01:15:10;;;;;;;201.57;104.75;;;180.10;2252.80;;;;;;5116056;28;20090;-82
2022/11/14 01:17:36;;;;;;;155.07;86.43;;;179.90;2252.80;;;;;;5116305;28;20406;-83
2022/11/14 01:20:02;;;;;;;187.40;104.10;;;179.80;2252.80;;;;;;5114806;28;20031;-82
2022/11/14 01:22:29;;;;;;;185.40;107.13;;;180.00;2252.80;;;;;;5116281;28;20051;-83
2022/11/14 01:24:57;;;;;;;168.95;98.88;;;180.00;2252.80;;;;;;5116870;28;20020;-84
2022/11/14 01:27:24;;;;;;;139.73;81.45;;;180.10;2252.80;;;;;;5115771;28;20441;-82
2022/11/14 01:29:49;;;;;;;109.18;64.13;;;180.10;2252.80;;;;;;5115749;28;20116;-82
2022/11/14 01:32:15;;;;;;;93.38;57.72;;;204.90;2252.80;;;;;;5115754;28;20047;-83
2022/11/14 01:34:41;;;;;;;93.57;59.05;;;180.10;2252.80;;;;;;5116020;28;20093;-84
2022/11/14 01:37:08;;;;;;;84.45;51.55;;;180.10;2252.80;;;;;;5115806;28;20065;-84
2022/11/14 01:39:33;;;;;;;77.20;49.45;;;180.10;2252.80;;;;;;5115702;28;20020;-83
2022/11/14 01:41:59;;;;;;;79.18;50.05;;;204.80;2252.80;;;;;;5115672;28;20024;-84
2022/11/14 01:44:51;;;;;;;80.60;49.95;;;180.10;2252.80;;;;;;5110415;28;20026;-83
2022/11/14 01:47:23;;;;;;;72.65;44.25;;;179.90;2252.80;;;;;;5074825;28;20472;-83
2022/11/14 01:49:59;;;;;;;66.50;41.03;;;179.80;2252.80;;;;;;5074093;28;20447;-83
2022/11/14 01:52:32;;;;;;;59.67;36.55;;;179.80;2252.80;;;;;;5074883;28;20029;-83
2022/11/14 01:55:00;;;;;;;54.65;32.85;;;179.80;2252.80;;;;;;5074755;28;20021;-83
2022/11/14 01:57:31;;;;;;;48.00;31.52;;;179.80;2252.80;;;;;;5074245;28;20035;-84
2022/11/14 02:00:01;;;;;;;56.45;33.22;;;179.80;2252.80;;;;;;5074708;28;20031;-83
2022/11/14 02:02:27;;;;;;;59.65;36.03;;;179.80;2252.80;;;;;;5074368;28;20032;-83
2022/11/14 02:04:59;;;;;;;66.47;39.20;;;179.50;2252.80;;;;;;5073899;28;20054;-83
2022/11/14 02:07:28;;;;;;;74.37;47.20;;;179.70;2252.80;;;;;;5074344;28;20028;-82
2022/11/14 02:09:54;;;;;;;65.22;41.10;;;179.40;2252.80;;;;;;5074282;28;20266;-84
2022/11/14 02:12:21;;;;;;;70.40;43.30;;;;;;;;;;5074122;28;20032;-84
2022/11/14 02:14:49;;;;;;;65.03;40.20;;;;;;;;;;5074924;28;20029;-83
2022/11/14 02:17:16;;;;;;;77.32;48.65;;;;;;;;;;5074198;28;20048;-84
2022/11/14 02:19:45;;;;;;;77.75;48.90;;;;;;;;;;5073237;28;20507;-83
2022/11/14 02:22:11;;;;;;;92.68;57.30;;;;;;;;;;5074316;28;20024;-84
2022/11/14 02:24:37;;;;;;;104.53;62.80;;;;;;;;;;5074063;28;20039;-84
2022/11/14 02:27:04;;;;;;;102.82;59.28;;;;;;;;;;5073788;28;20020;-84
2022/11/14 02:29:32;;;;;;;88.70;55.17;;;;;;;;;;5073949;28;20031;-84
2022/11/14 02:31:58;;;;;;;83.55;52.85;;;;;;;;;;5073499;28;20464;-81
2022/11/14 02:34:24;;;;;;;93.70;59.72;;;;;;;;;;5073830;28;20031;-84
2022/11/14 02:36:50;;;;;;;100.70;63.63;;;;;;;;;;5073030;28;20063;-84
2022/11/14 02:39:16;;;;;;;86.38;54.72;;;;;;;;;;5073677;28;20048;-85
2022/11/14 02:41:42;;;;;;;70.28;45.58;;;;;;;;;;5073113;28;20047;-83
2022/11/14 02:44:08;;;;;;;71.93;42.97;;;154.50;2252.80;;;;;;5073616;28;20028;-83
2022/11/14 02:46:34;;;;;;;57.33;35.17;;;154.30;2252.80;;;;;;5073410;28;20021;-81
2022/11/14 02:49:00;;;;;;;54.33;35.03;;;154.20;2252.80;;;;;;5073546;28;20037;-82
2022/11/14 02:51:26;;;;;;;48.83;32.83;;;154.20;2252.80;;;;;;5073800;28;20033;-81
2022/11/14 02:53:51;;;;;;;47.15;29.50;;;179.20;2252.80;;;;;;5073283;28;20531;-81
2022/11/14 02:56:17;;;;;;;45.90;28.35;;;154.50;2252.80;;;;;;5073493;28;20035;-84
2022/11/14 02:58:43;;;;;;;54.60;32.72;;;154.50;2252.80;;;;;;5073794;28;20032;-82
2022/11/14 03:01:09;;;;;;;48.83;31.10;;;154.40;2252.80;;;;;;5073306;28;20392;-81
2022/11/14 03:03:34;;;;;;;56.40;34.13;;;154.50;2252.80;;;;;;5073176;28;20029;-81
2022/11/14 03:06:01;;;;;;;62.88;38.58;;;154.40;2252.80;;;;;;5073992;28;20060;-81
2022/11/14 03:08:27;;;;;;;57.58;35.28;;;154.40;2252.80;;;;;;5073127;28;20032;-80
2022/11/14 03:10:54;;;;;;;60.10;36.08;;;154.40;2252.80;;;;;;5056923;28;20080;-81
2022/11/14 03:13:20;;;;;;;55.95;34.67;;;154.50;2252.80;;;;;;5075934;28;20024;-83
2022/11/14 03:15:46;;;;;;;53.45;33.92;;;154.50;2252.80;;;;;;5076565;28;20028;-83
2022/11/14 03:18:12;;;;;;;57.38;34.10;;;154.50;2252.80;;;;;;5094028;28;20119;-82
2022/11/14 03:20:38;;;;;;;53.88;34.42;;;154.50;2252.80;;;;;;5093233;28;20119;-81
2022/11/14 03:23:04;;;;;;;51.60;32.20;;;154.50;2252.80;;;;;;5093873;28;20063;-81
2022/11/14 03:25:30;;;;;;;58.40;34.92;;;154.00;2252.80;;;;;;5093096;28;20026;-81
2022/11/14 03:27:57;;;;;;;50.22;31.73;;;;;;;;;;5093161;28;20502;-81
2022/11/14 03:30:22;;;;;;;51.65;31.23;;;153.70;2252.80;;;;;;5092969;28;20028;-82
2022/11/14 03:32:48;;;;;;;55.45;32.03;;;154.00;2252.80;;;;;;5093194;28;20024;-81
2022/11/14 03:35:14;;;;;;;52.17;32.63;;;154.00;2252.80;;;;;;5092960;28;20115;-82
2022/11/14 03:37:40;;;;;;;50.60;32.53;;;153.70;2252.80;;;;;;5093172;28;20491;-81
2022/11/14 03:40:06;;;;;;;60.10;33.55;;;153.80;2252.80;;;;;;5092960;28;20024;-81
2022/11/14 03:42:33;;;;;;;51.92;33.13;;;153.90;2252.80;;;;;;5092096;28;20024;-83
2022/11/14 03:44:59;;;;;;;53.85;31.08;;;153.90;2252.80;;;;;;5092937;28;20024;-82
2022/11/14 03:47:25;;;;;;;45.97;30.27;;;153.70;2252.80;;;;;;5077747;28;20086;-81
2022/11/14 03:49:51;;;;;;;51.33;30.67;;;153.60;2252.80;;;;;;5072512;28;20102;-81
2022/11/14 03:52:16;;;;;;;61.92;36.90;;;153.80;2252.80;;;;;;5073361;28;20449;-82
2022/11/14 03:54:42;;;;;;;68.57;39.20;;;153.80;2252.80;;;;;;5073136;28;20040;-82
2022/11/14 03:57:08;;;;;;;61.00;38.30;;;154.00;2252.80;;;;;;5073065;28;20033;-82
2022/11/14 03:59:34;;;;;;;59.22;36.15;;;154.10;2252.80;;;;;;5073043;28;20066;-83
2022/11/14 04:01:59;;;;;;;58.03;34.15;;;154.20;2252.80;;;;;;5072816;28;20031;-82
2022/11/14 04:04:25;;;;;;;52.30;31.90;;;154.20;2252.80;;;;;;5066736;28;20049;-83
2022/11/14 04:06:51;;;;;;;47.17;29.70;;;153.70;2252.80;;;;;;5036107;28;20029;-82
2022/11/14 04:09:17;;;;;;;50.33;31.30;;;153.80;2252.80;;;;;;5035892;28;20036;-81
2022/11/14 04:11:42;;;;;;;58.40;33.60;;;153.60;2252.80;;;;;;5035598;28;20468;-82
2022/11/14 04:14:08;;;;;;;51.17;32.20;;;153.70;2252.80;;;;;;5035726;28;20499;-82
2022/11/14 04:16:34;;;;;;;56.08;32.72;;;153.60;2252.80;;;;;;5036032;28;20499;-81
2022/11/14 04:19:00;;;;;;;49.55;31.45;;;128.90;2252.80;;;;;;5035626;28;20029;-81
2022/11/14 04:21:26;;;;;;;48.15;29.55;;;128.80;2252.80;;;;;;5035832;28;20025;-83
2022/11/14 04:23:52;;;;;;;52.90;33.80;;;128.50;2252.80;;;;;;5035905;28;20083;-83
2022/11/14 04:26:18;;;;;;;50.20;32.22;;;128.60;2252.80;;;;;;5035605;28;20358;-83
2022/11/14 04:28:43;;;;;;;54.78;32.00;;;128.40;2252.80;;;;;;5035535;28;20044;-82
2022/11/14 04:31:09;;;;;;;51.42;31.85;;;128.40;2252.80;;;;;;5035556;28;20350;-82
2022/11/14 04:33:35;;;;;;;61.00;35.33;;;128.60;2252.80;;;;;;5035684;28;20426;-81
2022/11/14 04:36:01;;;;;;;59.42;34.25;;;128.50;2252.80;;;;;;5038136;28;20024;-82
2022/11/14 04:38:26;;;;;;;66.53;34.25;;;128.70;2252.80;;;;;;5035756;28;20025;-83
2022/11/14 04:40:53;;;;;;;62.08;36.00;;;128.40;2252.80;;;;;;5034973;28;20029;-82
2022/11/14 04:43:19;;;;;;;56.97;33.60;;;128.40;2252.80;;;;;;5035577;28;20029;-82
2022/11/14 04:45:46;;;;;;;60.53;34.88;;;128.40;2252.80;;;;;;5035363;28;20040;-83
2022/11/14 04:48:12;;;;;;;60.85;35.47;;;128.50;2252.80;;;;;;5035475;28;20120;-82
2022/11/14 04:50:38;;;;;;;62.65;35.78;;;128.00;2252.80;;;;;;5035627;28;20440;-81
2022/11/14 04:53:04;;;;;;;74.47;39.35;;;128.20;2252.80;;;;;;5035361;28;20099;-82
2022/11/14 04:55:30;;;;;;;65.63;38.72;;;128.30;2252.80;;;;;;5038622;28;20033;-81
2022/11/14 04:57:57;;;;;;;76.43;39.88;;;128.40;2252.80;;;;;;5039128;28;20078;-82
2022/11/14 05:00:23;;;;;;;58.40;35.13;;;128.50;2252.80;;;;;;5038760;28;20033;-81
2022/11/14 05:02:49;;;;;;;65.95;36.78;;;128.10;2252.80;;;;;;5039242;28;20052;-84
2022/11/14 05:05:15;;;;;;;56.08;32.42;;;128.00;2252.80;;;;;;5062149;28;20071;-81
2022/11/14 05:07:41;;;;;;;59.13;32.75;;;128.10;2252.80;;;;;;5075846;28;20025;-83
2022/11/14 05:10:08;;;;;;;57.03;32.13;;;128.20;2252.80;;;;;;5075080;28;20119;-80
2022/11/14 05:12:34;;;;;;;61.33;33.80;;;128.20;2252.80;;;;;;5075352;28;20077;-82
2022/11/14 05:15:00;;;;;;;61.47;32.30;;;128.30;2252.80;;;;;;5075230;28;20427;-83
2022/11/14 05:17:26;;;;;;;60.72;36.45;;;128.40;2252.80;;;;;;5075672;28;20116;-82
2022/11/14 05:19:52;;;;;;;80.63;48.55;;;128.40;2252.80;;;;;;5075233;28;20179;-79
2022/11/14 05:22:18;;;;;;;89.40;52.15;;;128.50;2252.80;;;;;;5075221;28;20060;-81
2022/11/14 05:24:43;;;;;;;105.57;61.35;;;128.60;2252.80;;;;;;5076132;28;20533;-81
2022/11/14 05:27:09;;;;;;;79.32;49.00;;;128.70;2252.80;;;;;;5075080;28;20017;-80
2022/11/14 05:29:35;;;;;;;67.55;39.58;;;128.70;2252.80;;;;;;5075176;28;20392;-82
2022/11/14 05:32:01;;;;;;;66.22;39.60;;;128.70;2252.80;;;;;;5075251;28;20103;-82
2022/11/14 05:34:27;;;;;;;49.08;31.63;;;128.60;2252.80;;;;;;5075017;28;20028;-80
2022/11/14 05:36:52;;;;;;;54.00;31.80;;;128.30;2252.80;;;;;;5075285;28;20029;-82
2022/11/14 05:39:18;;;;;;;58.20;32.38;;;128.40;2252.80;;;;;;5075136;28;20032;-81
2022/11/14 05:41:44;;;;;;;58.08;32.65;;;128.50;2252.80;;;;;;5074920;28;20028;-83
2022/11/14 05:44:10;;;;;;;49.22;31.30;;;128.60;2252.80;;;;;;5074493;28;20028;-81
2022/11/14 05:46:36;;;;;;;46.53;29.67;;;128.50;2252.80;;;;;;5077518;28;20031;-83
2022/11/14 05:49:01;;;;;;;54.78;32.47;;;128.10;2252.80;;;;;;5074448;28;20391;-82
2022/11/14 05:51:27;;;;;;;53.60;31.02;;;128.40;2252.80;;;;;;5074446;28;20124;-82
2022/11/14 05:53:54;;;;;;;63.38;37.75;;;128.10;2252.80;;;;;;5074870;28;20024;-82
2022/11/14 05:56:20;;;;;;;63.40;38.70;;;103.20;2227.20;;;;;;5074718;28;20317;-82
2022/11/14 05:58:45;;;;;;;75.95;49.28;;;128.00;2252.80;;;;;;5074784;28;20031;-79
2022/11/14 06:01:13;;;;;;;67.95;41.45;;;128.20;2252.80;;;;;;5074966;28;20046;-82
2022/11/14 06:03:44;;;;;;;69.45;41.42;;;103.30;2227.20;;;;;;5074177;28;20130;-81
2022/11/14 06:06:15;;;;;;;59.35;35.47;;;128.00;2252.80;;;;;;5054635;28;20025;-81
2022/11/14 06:08:41;;;;;;;54.35;31.08;;;128.20;2252.80;;;;;;5037859;28;20025;-82
2022/11/14 06:11:13;;;;;;;53.97;31.55;;;128.20;2252.80;;;;;;5037494;28;20036;-81
2022/11/14 06:13:39;;;;;;;;;;;128.10;2252.80;;;;;;5038335;28;20025;-82
2022/11/14 06:16:08;;;;;;;56.33;32.28;;;128.20;2252.80;;;;;;5037501;28;19916;-81
2022/11/14 06:18:35;;;;;;;74.60;43.28;;;128.00;2252.80;;;;;;5038098;28;20035;-82
2022/11/14 06:21:03;;;;;;;83.95;50.78;;;128.20;2252.80;;;;;;5037962;28;20361;-80
2022/11/14 06:23:29;;;;;;;82.20;47.50;;;128.00;2252.80;;;;;;5040437;28;20055;-82
2022/11/14 06:25:59;;;;;;;73.65;43.70;;;103.30;2227.20;;;;;;5039651;28;20021;-81
2022/11/14 06:28:25;;;;;;;79.35;43.63;;;103.30;2227.20;;;;;;5039959;28;20105;-80
2022/11/14 06:30:55;;;;;;;65.57;36.80;;;103.30;2227.20;;;;;;5039156;28;20061;-80
2022/11/14 06:33:20;;;;;;;61.42;37.33;;;128.10;2252.80;;;;;;5038863;28;20052;-80
2022/11/14 06:35:46;;;;;;;72.70;41.50;;;128.40;2252.80;;;;;;5039076;28;20036;-81
2022/11/14 06:38:12;;;;;;;67.38;38.53;;;128.40;2252.80;;;;;;5037961;28;20538;-79
2022/11/14 06:40:38;;;;;;;70.88;41.70;;;128.20;2252.80;;;;;;5037103;28;20056;-83
2022/11/14 06:43:03;;;;;;;64.03;40.83;;;128.30;2252.80;;;;;;5037112;28;20025;-80
2022/11/14 06:45:29;;;;;;;77.97;46.15;;;128.40;2252.80;;;;;;5036917;28;20025;-81
2022/11/14 06:47:58;;;;;;;67.80;39.10;;;128.10;2252.80;;;;;;5040130;28;20029;-80
2022/11/14 06:50:24;;;;;;;60.60;34.75;;;103.20;2227.20;;;;;;5036599;28;20044;-80
2022/11/14 06:52:50;;;;;;;71.95;41.95;;;128.20;2252.80;;;;;;5036509;28;20029;-81
2022/11/14 06:55:16;;;;;;;76.85;48.95;;;128.20;2252.80;;;;;;5036730;28;20025;-81
2022/11/14 06:57:42;;;;;;;144.57;87.93;;;128.50;2252.80;;;;;;5036442;28;20083;-82
2022/11/14 07:00:08;;;;;;;98.88;64.28;;;128.60;2252.80;;;;;;5038876;28;20025;-80
2022/11/14 07:02:34;;;;;;;112.80;68.60;;;128.40;2252.80;;;;;;5056626;28;20086;-80
2022/11/14 07:04:59;;;;;;;82.00;51.70;;;128.30;2252.80;;;;;;5075518;28;20048;-80
2022/11/14 07:07:25;;;;;;;83.97;45.92;;;128.40;2252.80;;;;;;5093224;28;20028;-81
2022/11/14 07:09:53;;;;;;;74.10;42.22;;;128.50;2252.80;;;;;;5093208;28;20024;-80
2022/11/14 07:12:18;;;;;;;88.68;51.22;;;128.60;2252.80;;;;;;5093432;28;20356;-81
2022/11/14 07:14:44;;;;;;;115.07;64.20;;;128.80;2252.80;;;;;;5092910;28;20024;-80
2022/11/14 07:17:10;;;;;;;94.55;54.13;;;128.90;2252.80;;;;;;5093274;28;20111;-81
2022/11/14 07:19:36;;;;;;;100.18;56.05;;;128.70;2252.80;;;;;;5093252;28;20802;-82
2022/11/14 07:22:01;;;;;;;92.80;55.85;;;128.60;2252.80;;;;;;5093265;28;20376;-80
2022/11/14 07:24:27;;;;;;;86.78;50.90;;;128.60;2252.80;;;;;;5094352;28;20030;-82
2022/11/14 07:26:53;;;;;;;80.63;51.00;;;128.90;2252.80;;;;;;5092898;28;20028;-82
2022/11/14 07:29:19;;;;;;;95.38;54.00;;;153.60;2252.80;;;;;;5092931;28;20456;-82
2022/11/14 07:31:44;;;;;;;79.45;50.25;;;153.70;2252.80;;;;;;5093021;28;20043;-82
2022/11/14 07:34:10;;;;;;;73.18;47.30;;;153.90;2252.80;;;;;;5092916;28;20024;-82
2022/11/14 07:36:36;;;;;;;82.25;49.17;;;154.00;2252.80;;;;;;5082583;28;20112;-81
2022/11/14 07:39:02;;;;;;;66.15;44.85;;;154.10;2252.80;;;;;;5072501;28;20533;-82
2022/11/14 07:41:28;;;;;;;79.40;47.88;;;154.20;2252.80;;;;;;5072013;28;20025;-81
2022/11/14 07:43:53;;;;;;;71.25;44.92;;;154.30;2252.80;;;;;;5072659;28;20483;-82
2022/11/14 07:46:19;;;;;;;71.93;44.50;;;154.50;2252.80;;;;;;5072733;28;20028;-83
2022/11/14 07:48:45;;;;;;;67.40;41.17;;;179.20;2252.80;;;;;;5072360;28;20028;-82
2022/11/14 07:51:17;;;;;;;72.13;37.58;;;179.20;2252.80;;;;;;5072879;28;20064;-84
2022/11/14 07:53:43;;;;;;;64.95;47.42;;;179.30;2252.80;;;;;;5072748;28;20025;-81
2022/11/14 07:56:10;;;;;;;65.95;41.10;;;179.40;2252.80;;;;;;5073825;28;20020;-82
2022/11/14 07:58:37;;;;;;;73.82;43.08;;;179.50;2252.80;;;;;;5072634;28;20127;-81
2022/11/14 08:01:04;;;;;;;68.60;45.70;;;179.60;2252.80;;;;;;5072455;28;20039;-82
2022/11/14 08:03:30;;;;;;;78.03;46.58;;;179.70;2252.80;;;;;;5072611;28;20475;-84
2022/11/14 08:06:18;;;;;;;92.72;50.97;;;179.80;2252.80;;;;;;5072501;28;20113;-81
2022/11/14 08:08:44;;;;;;;83.13;50.20;;;179.80;2252.80;;;;;;5072413;28;20029;-81
2022/11/14 08:11:10;;;;;;;78.82;51.80;;;180.10;2252.80;;;;;;5072495;28;20150;-83
2022/11/14 08:13:36;;;;;;;72.10;46.20;;;204.80;2252.80;;;;;;5072410;28;20027;-81
2022/11/14 08:16:07;;;;;;;79.47;48.20;;;204.90;2252.80;;;;;;5072120;28;20032;-83
2022/11/14 08:18:32;;;;;;;77.68;49.00;;;205.00;2252.80;;;;;;5072316;28;20028;-84
2022/11/14 08:20:58;;;;;;;82.57;51.97;;;205.10;2252.80;;;;;;5072361;28;20032;-84
2022/11/14 08:23:24;;;;;;;80.00;48.00;;;205.30;2252.80;;;;;;5072298;28;20054;-84
2022/11/14 08:25:50;;;;;;;74.68;45.28;;;205.40;2252.80;;;;;;5072226;28;20480;-83
2022/11/14 08:28:16;;;;;;;76.80;49.08;;;205.60;2252.80;;;;;;5072245;28;20036;-86
2022/11/14 08:30:41;;;;;;;73.65;49.30;;;205.70;2252.80;;;;;;5075919;28;20024;-86
2022/11/14 08:33:07;;;;;;;73.00;46.65;;;230.40;2252.80;;;;;;5076272;28;20029;-84
2022/11/14 08:35:33;;;;;;;72.88;48.03;;;230.60;2252.80;;;;;;5076384;28;20119;-87
2022/11/14 08:38:02;;;;;;;78.20;48.55;;;230.60;2252.80;;;;;;5075992;28;20024;-84
2022/11/14 08:40:29;;;;;;;73.15;46.20;;;230.70;2252.80;;;;;;5084500;28;20463;-83
2022/11/14 08:43:00;;;;;;;69.38;46.65;;;230.80;2252.80;;;;;;5096457;28;20114;-82
2022/11/14 08:45:25;;;;;;;60.85;38.53;;;230.90;2252.80;;;;;;5097175;28;20055;-83
2022/11/14 08:47:52;;;;;;;64.00;40.08;;;230.90;2252.80;;;;;;5096247;28;20458;-85
2022/11/14 08:50:18;;;;;;;53.22;36.35;;;231.10;2252.80;;;;;;5095436;28;20040;-84
2022/11/14 08:52:49;;;;;;;49.42;33.67;;;231.10;2252.80;;;;;;5092329;28;20029;-84
2022/11/14 08:55:15;;;;;;;52.83;34.67;;;231.30;2252.80;;;;;;5091025;28;20032;-85
2022/11/14 08:57:41;;;;;;;51.63;30.90;;;256.00;2252.80;;;;;;5079832;28;20378;-85
2022/11/14 09:00:07;;;;;;;42.63;29.63;;;256.10;2252.80;;;;;;5093298;28;20577;-85
2022/11/14 09:02:33;;;;;;;44.05;30.30;;;256.20;2252.80;;;;;;5082236;28;20021;-83
2022/11/14 09:04:59;;;;;;;50.72;32.28;;;256.30;2252.80;;;;;;5096239;28;20395;-84
2022/11/14 09:07:25;;;;;;;44.40;28.42;;;256.50;2252.80;;;;;;5083271;28;20028;-84
2022/11/14 09:09:51;;;;;;;43.50;29.52;;;256.50;2252.80;;;;;;5084116;28;20569;-83
2022/11/14 09:12:17;;;;;;;43.33;29.00;;;256.70;2252.80;;;;;;5095476;28;20119;-82
2022/11/14 09:14:42;;;;;;;36.95;26.60;;;256.80;2252.80;;;;;;5084613;28;20119;-84
2022/11/14 09:17:08;;;;;;;36.00;23.10;;;256.80;2252.80;;;;;;5084935;28;20078;-82
2022/11/14 09:19:34;;;;;;;35.10;25.02;;;256.90;2252.80;;;;;;5075815;28;20032;-82
2022/11/14 09:22:01;;;;;;;34.30;24.35;;;;;;;;;;5076202;28;20032;-83
2022/11/14 09:24:27;;;;;;;36.13;25.30;;;;;;;;;;5075888;28;20016;-83
2022/11/14 09:26:54;;;;;;;32.80;24.50;;;;;;;;;;5078542;28;20058;-83
2022/11/14 09:29:20;;;;;;;30.88;22.23;;;;;;;;;;5088611;28;20049;-82
2022/11/14 09:31:46;;;;;;;31.40;23.05;;;;;;;;;;5082221;28;20379;-83
2022/11/14 09:34:12;;;;;;;30.63;20.90;;;307.30;2304.00;;;;;;5081813;28;20531;-82
2022/11/14 09:36:38;;;;;;;30.27;20.10;;;307.40;2304.00;;;;;;5079822;28;20031;-82
2022/11/14 09:39:04;;;;;;;27.40;20.30;;;;;;;;;;5085807;28;20115;-84
2022/11/14 09:41:50;;;;;;;27.10;20.98;;;307.80;2304.00;;;;;;5080853;28;20032;-85
2022/11/14 09:44:37;;;;;;;27.35;19.75;;;307.80;2304.00;;;;;;5066699;28;20028;-89
2022/11/14 09:47:17;;;;;;;27.20;20.45;;;307.80;2304.00;;;;;;5084943;28;20023;-84
2022/11/14 09:49:48;;;;;;;27.65;19.17;;;307.90;2304.00;;;;;;5084458;28;20056;-86
2022/11/14 09:52:32;;;;;;;29.17;20.05;;;308.10;2304.00;;;;;;5078128;28;20048;-89
2022/11/14 09:55:03;;;;;;;25.90;19.77;;;308.10;2304.00;;;;;;5090205;28;20032;-86
2022/11/14 09:57:29;;;;;;;23.17;17.10;;;332.90;2329.60;;;;;;5085759;28;20035;-84
2022/11/14 09:59:55;;;;;;;26.33;18.27;;;332.90;2329.60;;;;;;5086606;28;20027;-84
2022/11/14 10:02:53;;;;;;;23.65;18.90;;;333.10;2329.60;;;;;;5079298;28;20025;-84
2022/11/14 10:05:34;;;;;;;32.90;20.05;;;333.30;2329.60;;;;;;5025204;28;20090;-84
2022/11/14 10:08:18;;;;;;;38.17;25.00;;;333.40;2329.60;;;;;;5095188;28;20024;-87
2022/11/14 10:10:58;;;;;;;44.67;30.00;;;333.50;2329.60;;;;;;5093452;28;20041;-82
2022/11/14 10:13:43;;;;;;;27.42;19.77;;;;;;;;;;5096308;28;20076;-84
2022/11/14 10:16:18;;;;;;;50.58;34.00;;;;;;;;;;5093485;28;20016;-82
2022/11/14 10:18:44;;;;;;;36.58;21.92;;;;;;;;;;5075066;28;20095;-87
2022/11/14 10:21:16;;;;;;;28.67;19.73;;;;;;;;;;5074814;28;20028;-83
2022/11/14 10:23:47;;;;;;;25.40;18.98;;;;;;;;;;5074471;28;20021;-87
2022/11/14 10:26:29;;;;;;;28.00;19.15;;;358.70;2329.60;;;;;;5074511;28;20032;-85
2022/11/14 10:29:32;;;;;;;25.50;19.03;;;358.80;2329.60;;;;;;5089120;28;20084;-85
2022/11/14 10:32:11;;;;;;;26.40;18.45;;;358.80;2329.60;;;;;;5073965;28;20057;-89
2022/11/14 10:34:55;;;;;;;23.95;17.65;;;358.90;2329.60;;;;;;5074546;28;20024;-88
2022/11/14 10:37:36;;;;;;;25.17;19.65;;;359.00;2329.60;;;;;;5081132;28;20111;-86
2022/11/14 10:40:12;;;;;;;25.25;18.35;;;359.00;2329.60;;;;;;5083574;28;20024;-86
2022/11/14 10:42:42;;;;;;;26.88;18.83;;;359.00;2329.60;;;;;;5088867;28;20020;-84
2022/11/14 10:45:20;;;;;;;23.38;17.00;;;359.00;2329.60;;;;;;5088866;28;20089;-84
2022/11/14 10:47:54;;;;;;;27.30;19.23;;;359.10;2329.60;;;;;;5087561;28;20063;-87
2022/11/14 10:50:50;;;;;;;26.38;18.27;;;358.80;2329.60;;;;;;5080868;28;20054;-88
2022/11/14 10:53:47;;;;;;;22.73;16.92;;;359.20;2329.60;;;;;;5088338;28;20020;-84
2022/11/14 10:56:13;;;;;;;22.48;16.92;;;359.30;2329.60;;;;;;5069425;28;20067;-84
2022/11/14 10:58:43;;;;;;;20.92;16.20;;;384.00;2329.60;;;;;;5094114;28;20034;-90
2022/11/14 11:01:31;;;;;;;22.67;15.05;;;384.10;2329.60;;;;;;5094547;28;20578;-87
2022/11/14 11:03:57;;;;;;;19.65;14.07;;;;;;;;;;5084211;28;20457;-85
2022/11/14 11:06:27;;;;;;;21.23;15.18;;;;;;;;;;5037338;28;20051;-86
2022/11/14 11:11:40;;;;;;;18.27;13.82;;;409.60;2355.20;;;;;;5054712;28;20091;-86
2022/11/14 11:14:14;;;;;;;21.30;14.90;;;;;;;;;;5037058;28;20037;-85
2022/11/14 11:16:41;;;;;;;21.98;16.17;;;;;;;;;;5036988;28;20017;-86
2022/11/14 11:19:15;;;;;;;22.55;15.73;;;;;;;;;;5036878;28;20496;-86
2022/11/14 11:21:49;;;;;;;21.85;17.15;;;410.30;2355.20;;;;;;5036805;28;20032;-84
2022/11/14 11:24:33;;;;;;;20.67;14.48;;;435.20;2355.20;;;;;;5036774;28;20033;-86
2022/11/14 11:27:19;;;;;;;16.75;13.15;;;435.60;2355.20;;;;;;5036896;28;20029;-85
2022/11/14 11:29:45;;;;;;;16.20;13.45;;;435.50;2355.20;;;;;;5053998;28;20025;-85
2022/11/14 11:32:24;;;;;;;19.23;13.70;;;435.80;2355.20;;;;;;5035632;28;20125;-85
2022/11/14 11:34:51;;;;;;;20.60;14.30;;;;;;;;;;5036084;28;20032;-85
2022/11/14 11:37:25;;;;;;;17.52;13.02;;;461.10;2380.80;;;;;;5065976;28;20395;-84
2022/11/14 11:40:22;;;;;;;22.10;15.00;;;461.00;2380.80;;;;;;5056227;28;20063;-84
2022/11/14 11:43:26;;;;;;;20.67;16.13;;;461.20;2380.80;;;;;;5055047;28;20029;-83
2022/11/14 11:45:54;;;;;;;20.90;15.32;;;;;;;;;;4956504;28;20190;-82
2022/11/14 11:48:22;;;;;;;22.27;16.80;;;;;;;;;;4971659;28;20062;-83
2022/11/14 11:50:49;;;;;;;26.95;19.92;;;;;;;;;;5021360;28;20032;-83
2022/11/14 11:53:24;;;;;;;21.67;16.10;;;;;;;;;;5055948;28;20047;-84
2022/11/14 11:55:56;;;;;;;27.00;13.98;;;;;;;;;;5056154;28;20052;-84
2022/11/14 11:58:47;;;;;;;19.05;14.75;;;486.50;2380.80;;;;;;5056128;28;20035;-84
2022/11/14 12:01:14;;;;;;;21.13;16.10;;;486.50;2380.80;;;;;;5055860;28;20036;-84
2022/11/14 12:03:48;;;;;;;30.25;19.80;;;486.90;2380.80;;;;;;5056778;28;20470;-83
2022/11/14 12:06:15;;;;;;;18.00;14.85;;;;;;;;;;5059266;28;20033;-83
2022/11/14 12:08:41;;;;;;;26.67;16.17;;;;;;;;;;5040291;28;20025;-85
2022/11/14 12:11:13;;;;;;;18.30;13.85;;;;;;;;;;5038991;28;20075;-87
2022/11/14 12:13:42;;;;;;;23.02;16.15;;;;;;;;;;5060271;28;20468;-85
2022/11/14 12:16:11;;;;;;;18.42;14.45;;;;;;;;;;5061624;28;20024;-86
2022/11/14 12:18:50;;;;;;;22.17;15.43;;;;;;;;;;5059033;28;20035;-84
2022/11/14 12:21:25;;;;;;;124.05;82.55;;;;;;;;;;5059871;28;20021;-85
2022/11/14 12:24:12;;;;;;;53.58;38.08;;;487.30;2380.80;;;;;;5060209;28;20480;-84
2022/11/14 12:26:57;;;;;;;37.72;29.33;;;;;;;;;;5060023;28;20020;-86